createdAt,value
2022-08-08T00:00:54.228Z,2.90
2022-08-08T00:03:32.237Z,2.95
2022-08-08T00:06:28.752Z,2.70
2022-08-08T00:09:20.326Z,2.38
2022-08-08T00:12:09.566Z,2.08
2022-08-08T00:15:15.381Z,2.53
2022-08-08T00:18:08.532Z,2.58
2022-08-08T00:20:53.301Z,2.13
2022-08-08T00:23:51.745Z,2.80
2022-08-08T00:26:30.065Z,2.92
2022-08-08T00:29:17.565Z,3.20
2022-08-08T00:32:35.866Z,2.70
2022-08-08T00:35:42.646Z,3.65
2022-08-08T00:39:00.290Z,4.45
2022-08-08T00:42:07.999Z,4.35
2022-08-08T00:45:27.249Z,3.40
2022-08-08T00:48:36.803Z,2.88
2022-08-08T00:51:15.251Z,2.40
2022-08-08T00:54:18.552Z,2.45
2022-08-08T00:57:40.743Z,2.50
2022-08-08T01:00:26.753Z,2.33
2022-08-08T01:04:01.885Z,3.13
2022-08-08T01:06:47.524Z,3.78
2022-08-08T01:09:58.900Z,3.67
2022-08-08T01:13:15.143Z,5.78
2022-08-08T01:16:37.171Z,7.15
2022-08-08T01:20:03.294Z,13.32
2022-08-08T01:24:02.390Z,7.75
2022-08-08T01:26:27.503Z,3.53
2022-08-08T01:29:35.338Z,4.40
2022-08-08T01:32:23.405Z,3.38
2022-08-08T01:35:30.611Z,10.40
2022-08-08T01:38:40.616Z,5.00
2022-08-08T01:42:08.314Z,2.97
2022-08-08T01:45:09.829Z,2.60
2022-08-08T01:48:23.344Z,2.83
2022-08-08T01:52:05.114Z,4.10
2022-08-08T01:55:45.149Z,6.03
2022-08-08T01:58:46.954Z,5.13
2022-08-08T02:02:08.465Z,5.05
2022-08-08T02:05:55.696Z,5.40
2022-08-08T02:08:49.622Z,3.20
2022-08-08T02:11:53.210Z,3.00
2022-08-08T02:15:11.083Z,2.58
2022-08-08T02:18:16.074Z,2.92
2022-08-08T02:21:18.299Z,2.78
2022-08-08T02:27:18.707Z,2.42
2022-08-08T02:30:08.150Z,2.03
2022-08-08T02:33:21.553Z,2.33
2022-08-08T02:36:39.665Z,2.00
2022-08-08T02:39:58.317Z,2.15
2022-08-08T02:44:37.083Z,2.20
2022-08-08T02:46:50.666Z,2.25
2022-08-08T02:50:03.787Z,1.85
2022-08-08T02:52:50.287Z,1.88
2022-08-08T02:56:26.649Z,1.40
2022-08-08T02:59:58.528Z,1.50
2022-08-08T03:05:00.926Z,1.45
2022-08-08T03:06:47.143Z,1.60
2022-08-08T03:10:17.919Z,1.58
2022-08-08T03:15:56.873Z,1.20
2022-08-08T03:17:02.235Z,1.35
2022-08-08T03:20:08.320Z,1.20
2022-08-08T03:22:57.050Z,1.20
2022-08-08T03:25:35.893Z,3.38
2022-08-08T03:28:37.955Z,2.15
2022-08-08T03:31:26.972Z,1.20
2022-08-08T03:34:06.558Z,1.20
2022-08-08T03:36:43.994Z,1.30
2022-08-08T03:39:16.080Z,1.88
2022-08-08T03:42:28.528Z,1.63
2022-08-08T03:44:40.145Z,1.33
2022-08-08T03:47:22.175Z,1.42
2022-08-08T03:50:00.067Z,1.70
2022-08-08T03:52:36.357Z,1.88
2022-08-08T03:55:56.372Z,1.75
2022-08-08T03:58:35.256Z,1.75
2022-08-08T04:01:23.298Z,1.70
2022-08-08T04:03:58.835Z,1.63
2022-08-08T04:06:30.714Z,1.80
2022-08-08T04:09:11.451Z,2.10
2022-08-08T04:11:58.223Z,2.83
2022-08-08T04:14:34.437Z,1.50
2022-08-08T04:17:04.572Z,1.80
2022-08-08T04:19:36.572Z,1.40
2022-08-08T04:22:05.131Z,1.23
2022-08-08T04:24:40.188Z,1.60
2022-08-08T04:27:42.980Z,1.55
2022-08-08T04:30:17.329Z,1.38
2022-08-08T04:32:50.428Z,1.70
2022-08-08T04:35:23.193Z,1.70
2022-08-08T04:37:54.365Z,1.70
2022-08-08T04:40:27.586Z,2.00
2022-08-08T04:43:01.101Z,1.20
2022-08-08T04:45:40.541Z,1.60
2022-08-08T04:48:09.253Z,1.80
2022-08-08T04:50:44.528Z,2.30
2022-08-08T04:56:09.003Z,1.20
2022-08-08T04:58:38.291Z,1.30
2022-08-08T05:01:11.230Z,1.73
2022-08-08T05:04:11.443Z,1.38
2022-08-08T05:06:39.332Z,1.60
2022-08-08T05:09:08.937Z,1.33
2022-08-08T05:11:41.384Z,1.00
2022-08-08T05:14:14.125Z,1.30
2022-08-08T05:16:50.968Z,1.40
2022-08-08T05:20:12.630Z,1.38
2022-08-08T05:22:13.635Z,1.10
2022-08-08T05:24:48.958Z,1.10
2022-08-08T05:27:20.427Z,1.27
2022-08-08T05:29:50.224Z,1.70
2022-08-08T05:32:24.728Z,1.20
2022-08-08T05:35:04.385Z,1.23
2022-08-08T05:37:53.829Z,1.30
2022-08-08T05:40:35.164Z,1.40
2022-08-08T05:43:38.610Z,1.70
2022-08-08T05:46:08.552Z,1.25
2022-08-08T05:48:41.947Z,1.33
2022-08-08T05:51:15.537Z,1.25
2022-08-08T05:53:56.290Z,1.70
2022-08-08T05:56:47.539Z,1.30
2022-08-08T05:59:59.428Z,1.17
2022-08-08T06:02:43.945Z,1.45
2022-08-08T06:05:34.045Z,1.00
2022-08-08T06:08:09.755Z,1.73
2022-08-08T06:10:50.514Z,1.65
2022-08-08T06:13:23.228Z,1.00
2022-08-08T06:15:56.622Z,1.30
2022-08-08T06:18:32.201Z,1.33
2022-08-08T06:21:03.603Z,1.65
2022-08-08T06:23:52.735Z,1.45
2022-08-08T06:26:44.804Z,1.30
2022-08-08T06:29:59.264Z,1.40
2022-08-08T06:32:32.239Z,1.60
2022-08-08T06:36:06.280Z,1.38
2022-08-08T06:38:14.252Z,1.67
2022-08-08T06:40:54.125Z,1.30
2022-08-08T06:43:34.629Z,1.43
2022-08-08T06:46:08.764Z,1.27
2022-08-08T06:48:38.467Z,1.10
2022-08-08T06:51:11.607Z,1.08
2022-08-08T06:53:50.968Z,1.30
2022-08-08T06:56:32.266Z,1.23
2022-08-08T06:59:02.359Z,1.77
2022-08-08T07:02:27.655Z,1.20
2022-08-08T07:04:58.595Z,1.40
2022-08-08T07:08:06.396Z,1.30
2022-08-08T07:10:46.266Z,1.27
2022-08-08T07:13:22.936Z,1.30
2022-08-08T07:16:17.762Z,1.45
2022-08-08T07:19:32.577Z,1.58
2022-08-08T07:22:12.164Z,1.35
2022-08-08T07:25:02.484Z,1.48
2022-08-08T07:28:01.909Z,1.40
2022-08-08T07:30:36.602Z,1.40
2022-08-08T07:33:05.004Z,1.40
2022-08-08T07:35:35.723Z,1.50
2022-08-08T07:38:18.355Z,1.17
2022-08-08T07:41:04.574Z,1.23
2022-08-08T07:43:38.037Z,1.20
2022-08-08T07:46:23.332Z,0.95
2022-08-08T07:49:01.150Z,1.10
2022-08-08T07:51:44.734Z,1.30
2022-08-08T07:57:21.091Z,1.20
2022-08-08T08:00:05.522Z,1.40
2022-08-08T08:03:20.321Z,1.02
2022-08-08T08:05:53.361Z,1.40
2022-08-08T08:09:00.633Z,1.00
2022-08-08T08:11:38.326Z,1.17
2022-08-08T08:14:49.936Z,1.83
2022-08-08T08:17:21.059Z,1.13
2022-08-08T08:19:55.805Z,1.48
2022-08-08T08:22:31.303Z,1.00
2022-08-08T08:25:08.301Z,2.42
2022-08-08T08:27:39.348Z,1.10
2022-08-08T08:30:15.902Z,1.15
2022-08-08T08:32:51.541Z,1.52
2022-08-08T08:35:21.432Z,1.67
2022-08-08T08:38:17.506Z,1.33
2022-08-08T08:40:51.323Z,1.23
2022-08-08T08:43:28.965Z,1.40
2022-08-08T08:48:36.850Z,0.95
2022-08-08T08:53:55.946Z,1.10
2022-08-08T08:56:36.140Z,0.93
2022-08-08T08:59:15.680Z,1.23
2022-08-08T09:01:57.913Z,1.30
2022-08-08T09:04:39.599Z,1.30
2022-08-08T09:07:24.056Z,1.17
2022-08-08T09:10:17.117Z,1.40
2022-08-08T09:12:50.953Z,1.00
2022-08-08T09:15:41.456Z,1.27
2022-08-08T09:18:09.603Z,1.27
2022-08-08T09:21:58.132Z,1.30
2022-08-08T09:23:33.723Z,1.23
2022-08-08T09:26:27.186Z,1.33
2022-08-08T09:29:09.504Z,1.40
2022-08-08T09:32:00.685Z,1.65
2022-08-08T09:34:42.133Z,1.27
2022-08-08T09:37:46.314Z,1.58
2022-08-08T09:40:13.281Z,1.40
2022-08-08T09:42:51.656Z,1.35
2022-08-08T09:46:00.885Z,1.48
2022-08-08T09:48:26.991Z,1.42
2022-08-08T09:51:05.142Z,1.10
2022-08-08T09:53:59.910Z,1.33
2022-08-08T09:56:41.117Z,1.25
2022-08-08T10:00:02.412Z,1.38
2022-08-08T10:02:25.089Z,1.48
2022-08-08T10:05:14.629Z,1.27
2022-08-08T10:07:59.778Z,1.73
2022-08-08T10:10:50.142Z,1.05
2022-08-08T10:13:29.977Z,1.10
2022-08-08T10:16:05.422Z,1.15
2022-08-08T10:18:36.670Z,1.15
2022-08-08T10:21:26.114Z,1.60
2022-08-08T10:24:28.283Z,1.15
2022-08-08T10:27:04.612Z,1.20
2022-08-08T10:29:58.789Z,1.45
2022-08-08T10:32:39.082Z,1.38
2022-08-08T10:35:20.196Z,1.25
2022-08-08T10:38:13.601Z,1.47
2022-08-08T10:40:45.932Z,1.48
2022-08-08T10:43:14.587Z,1.20
2022-08-08T10:45:55.119Z,1.50
2022-08-08T10:48:56.969Z,1.45
2022-08-08T10:51:47.152Z,2.00
2022-08-08T10:54:25.013Z,1.48
2022-08-08T10:57:03.813Z,1.50
2022-08-08T10:59:39.867Z,2.20
2022-08-08T11:02:11.186Z,1.92
2022-08-08T11:04:53.193Z,2.00
2022-08-08T11:08:31.622Z,1.40
2022-08-08T11:10:29.250Z,1.17
2022-08-08T11:15:58.792Z,1.50
2022-08-08T11:18:30.579Z,1.35
2022-08-08T11:21:08.864Z,1.15
2022-08-08T11:23:43.119Z,1.48
2022-08-08T11:26:18.925Z,1.45
2022-08-08T11:28:50.223Z,1.48
2022-08-08T11:31:20.764Z,2.10
2022-08-08T11:34:03.290Z,1.77
2022-08-08T11:36:36.480Z,2.05
2022-08-08T11:39:11.078Z,1.63
2022-08-08T11:41:43.262Z,1.90
2022-08-08T11:44:15.024Z,1.70
2022-08-08T11:46:43.848Z,1.80
2022-08-08T11:49:14.072Z,2.22
2022-08-08T11:51:49.877Z,1.90
2022-08-08T11:54:33.584Z,1.67
2022-08-08T11:57:17.417Z,1.67
2022-08-08T12:00:06.265Z,3.47
2022-08-08T12:02:57.392Z,3.05
2022-08-08T12:05:41.596Z,1.67
2022-08-08T12:08:10.392Z,1.70
2022-08-08T12:10:51.673Z,1.40
2022-08-08T12:13:38.107Z,1.80
2022-08-08T12:16:17.645Z,1.40
2022-08-08T12:18:56.235Z,1.35
2022-08-08T12:21:59.151Z,1.52
2022-08-08T12:24:28.050Z,1.50
2022-08-08T12:26:58.637Z,1.90
2022-08-08T12:29:40.864Z,1.67
2022-08-08T12:32:20.999Z,1.90
2022-08-08T12:35:04.378Z,1.77
2022-08-08T12:37:41.284Z,1.55
2022-08-08T12:40:22.371Z,1.73
2022-08-08T12:42:53.762Z,1.40
2022-08-08T12:45:59.325Z,1.65
2022-08-08T12:51:11.255Z,2.92
2022-08-08T12:54:00.050Z,1.80
2022-08-08T12:56:37.432Z,1.70
2022-08-08T12:59:36.673Z,1.38
2022-08-08T13:02:28.532Z,1.92
2022-08-08T13:05:00.220Z,1.75
2022-08-08T13:08:03.044Z,1.50
2022-08-08T13:10:36.520Z,1.33
2022-08-08T13:13:28.624Z,1.88
2022-08-08T13:16:21.567Z,1.65
2022-08-08T13:19:07.958Z,1.77
2022-08-08T13:21:53.145Z,1.67
2022-08-08T13:24:42.407Z,1.90
2022-08-08T13:27:22.347Z,1.98
2022-08-08T13:29:59.428Z,1.80
2022-08-08T13:32:35.926Z,1.98
2022-08-08T13:35:24.465Z,1.83
2022-08-08T13:38:08.427Z,1.88
2022-08-08T13:40:45.109Z,1.80
2022-08-08T13:43:16.469Z,2.10
2022-08-08T13:45:47.277Z,2.10
2022-08-08T13:48:25.770Z,1.73
2022-08-08T13:50:58.024Z,3.65
2022-08-08T13:54:00.019Z,2.30
2022-08-08T13:57:00.215Z,2.05
2022-08-08T13:59:49.358Z,2.08
2022-08-08T14:02:33.108Z,2.05
2022-08-08T14:05:20.230Z,1.88
2022-08-08T14:07:52.217Z,2.00
2022-08-08T14:10:33.735Z,2.15
2022-08-08T14:13:21.035Z,2.22
2022-08-08T14:16:16.090Z,1.92
2022-08-08T14:18:58.027Z,2.33
2022-08-08T14:21:48.592Z,2.22
2022-08-08T14:24:34.305Z,2.20
2022-08-08T14:27:07.809Z,2.25
2022-08-08T14:29:40.355Z,2.53
2022-08-08T14:32:16.111Z,2.00
2022-08-08T14:35:06.764Z,2.40
2022-08-08T14:37:59.620Z,1.90
2022-08-08T14:40:29.944Z,1.95
2022-08-08T14:43:01.452Z,1.98
2022-08-08T14:45:46.904Z,2.45
2022-08-08T14:48:34.038Z,2.45
2022-08-08T14:51:07.576Z,2.40
2022-08-08T14:53:54.716Z,2.13
2022-08-08T14:56:26.376Z,2.90
2022-08-08T14:58:55.257Z,2.50
2022-08-08T15:01:37.419Z,2.38
2022-08-08T15:04:11.076Z,2.15
2022-08-08T15:06:39.013Z,2.25
2022-08-08T15:09:07.402Z,2.50
2022-08-08T15:11:42.894Z,2.42
2022-08-08T15:14:15.270Z,2.55
2022-08-08T15:16:44.206Z,2.15
2022-08-08T15:19:15.057Z,2.70
2022-08-08T15:21:44.838Z,2.60
2022-08-08T15:24:15.911Z,2.40
2022-08-08T15:26:52.304Z,2.47
2022-08-08T15:29:24.534Z,2.65
2022-08-08T15:32:03.913Z,2.90
2022-08-08T15:34:42.797Z,2.63
2022-08-08T15:37:10.775Z,2.45
2022-08-08T15:39:41.034Z,2.80
2022-08-08T15:42:13.476Z,2.17
2022-08-08T15:44:57.470Z,2.20
2022-08-08T15:47:25.448Z,2.25
2022-08-08T15:49:53.574Z,2.28
2022-08-08T15:52:24.861Z,2.25
2022-08-08T15:54:53.542Z,2.70
2022-08-08T15:57:23.371Z,2.90
2022-08-08T16:00:05.282Z,2.47
2022-08-08T16:02:50.556Z,2.35
2022-08-08T16:05:21.531Z,2.42
2022-08-08T16:07:53.952Z,2.53
2022-08-08T16:13:11.480Z,2.10
2022-08-08T16:16:09.330Z,1.92
2022-08-08T16:18:57.380Z,2.72
2022-08-08T16:21:30.104Z,2.10
2022-08-08T16:24:10.281Z,2.38
2022-08-08T16:26:42.258Z,3.03
2022-08-08T16:29:16.334Z,2.65
2022-08-08T16:31:48.872Z,2.10
2022-08-08T16:34:21.295Z,2.95
2022-08-08T16:36:50.363Z,2.75
2022-08-08T16:40:01.000Z,2.22
2022-08-08T16:44:55.163Z,2.10
2022-08-08T16:47:31.448Z,2.53
2022-08-08T16:50:14.215Z,2.63
2022-08-08T16:55:24.297Z,2.45
2022-08-08T16:55:55.296Z,2.60
2022-08-08T16:58:30.949Z,2.70
2022-08-08T17:01:06.248Z,2.78
2022-08-08T17:03:58.694Z,2.47
2022-08-08T17:06:36.523Z,2.33
2022-08-08T17:09:06.500Z,2.63
2022-08-08T17:11:38.742Z,2.88
2022-08-08T17:14:18.078Z,3.08
2022-08-08T17:16:57.721Z,2.60
2022-08-08T17:19:31.929Z,2.90
2022-08-08T17:22:10.751Z,2.30
2022-08-08T17:24:40.957Z,2.72
2022-08-08T17:27:08.765Z,2.70
2022-08-08T17:29:43.674Z,2.83
2022-08-08T17:32:29.073Z,2.45
2022-08-08T17:37:53.244Z,2.72
2022-08-08T17:40:22.419Z,3.50
2022-08-08T17:45:23.670Z,3.60
2022-08-08T17:47:54.633Z,3.50
2022-08-08T17:50:25.092Z,3.78
2022-08-08T17:52:57.481Z,4.53
2022-08-08T17:56:06.192Z,4.25
2022-08-08T17:58:17.604Z,3.83
2022-08-08T18:00:56.196Z,3.58
2022-08-08T18:03:26.612Z,3.63
2022-08-08T18:05:55.303Z,2.88
2022-08-08T18:08:25.113Z,2.70
2022-08-08T18:11:16.835Z,2.60
2022-08-08T18:13:46.975Z,2.80
2022-08-08T18:16:23.112Z,2.80
2022-08-08T18:18:56.323Z,2.38
2022-08-08T18:22:00.333Z,2.50
2022-08-08T18:24:30.159Z,2.85
2022-08-08T18:27:00.908Z,2.80
2022-08-08T18:29:35.569Z,2.60
2022-08-08T18:32:08.774Z,2.75
2022-08-08T18:34:42.718Z,2.90
2022-08-08T18:37:33.788Z,2.80
2022-08-08T18:40:14.742Z,2.88
2022-08-08T18:42:58.201Z,3.25
2022-08-08T18:46:53.041Z,2.92
2022-08-08T18:48:18.400Z,2.90
2022-08-08T18:50:50.296Z,3.55
2022-08-08T18:53:29.682Z,4.97
2022-08-08T18:56:31.389Z,6.63
2022-08-08T18:59:00.304Z,9.10
2022-08-08T19:02:27.691Z,9.77
2022-08-08T19:04:16.624Z,9.02
2022-08-08T19:06:47.071Z,7.60
2022-08-08T19:09:17.909Z,5.53
2022-08-08T19:11:51.074Z,5.30
2022-08-08T19:14:22.891Z,5.82
2022-08-08T19:16:50.598Z,5.03
2022-08-08T19:19:18.551Z,6.25
2022-08-08T19:21:49.940Z,5.75
2022-08-08T19:24:39.094Z,6.38
2022-08-08T19:27:10.767Z,6.65
2022-08-08T19:29:42.416Z,6.30
2022-08-08T19:32:17.928Z,8.07
2022-08-08T19:34:51.594Z,6.93
2022-08-08T19:40:14.635Z,8.25
2022-08-08T19:42:47.242Z,8.88
2022-08-08T19:45:58.332Z,6.95
2022-08-08T19:48:29.199Z,6.57
2022-08-08T19:50:57.274Z,5.80
2022-08-08T19:53:53.595Z,5.60
2022-08-08T19:56:25.558Z,5.47
2022-08-08T19:59:07.574Z,5.35
2022-08-08T20:02:02.707Z,5.60
2022-08-08T20:04:24.526Z,5.40
2022-08-08T20:06:54.130Z,5.28
2022-08-08T20:09:25.685Z,5.13
2022-08-08T20:11:58.251Z,5.82
2022-08-08T20:14:34.098Z,8.03
2022-08-08T20:17:05.244Z,12.85
2022-08-08T20:19:42.282Z,10.95
2022-08-08T20:22:20.999Z,7.53
2022-08-08T20:25:00.233Z,5.63
2022-08-08T20:27:32.887Z,6.68
2022-08-08T20:30:53.178Z,5.68
2022-08-08T20:33:02.128Z,5.18
2022-08-08T20:35:32.878Z,4.53
2022-08-08T20:38:19.705Z,4.40
2022-08-08T20:40:57.767Z,5.25
2022-08-08T20:43:43.774Z,5.10
2022-08-08T20:46:14.907Z,5.03
2022-08-08T20:48:42.957Z,5.18
2022-08-08T20:51:14.429Z,6.28
2022-08-08T20:54:00.657Z,5.15
2022-08-08T20:56:36.023Z,5.05
2022-08-08T20:59:09.146Z,4.95
2022-08-08T21:02:06.488Z,4.40
2022-08-08T21:04:27.356Z,4.30
2022-08-08T21:06:58.425Z,4.18
2022-08-08T21:09:31.636Z,4.45
2022-08-08T21:12:16.575Z,8.98
2022-08-08T21:14:49.071Z,4.57
2022-08-08T21:17:17.401Z,4.47
2022-08-08T21:19:47.986Z,4.80
2022-08-08T21:22:16.047Z,4.35
2022-08-08T21:24:52.696Z,5.80
2022-08-08T21:28:05.886Z,4.30
2022-08-08T21:30:24.395Z,4.15
2022-08-08T21:32:53.488Z,4.18
2022-08-08T21:36:18.358Z,3.85
2022-08-08T21:38:17.013Z,3.92
2022-08-08T21:40:54.827Z,4.50
2022-08-08T21:43:34.825Z,3.90
2022-08-08T21:48:03.904Z,3.92
2022-08-08T21:49:04.650Z,3.53
2022-08-08T21:54:31.838Z,3.90
2022-08-08T21:54:54.890Z,4.05
2022-08-08T21:57:21.043Z,4.20
2022-08-08T22:00:02.539Z,3.70
2022-08-08T22:02:41.824Z,4.15
2022-08-08T22:05:11.999Z,3.92
2022-08-08T22:07:48.051Z,3.92
2022-08-08T22:10:32.170Z,3.88
2022-08-08T22:13:19.020Z,4.32
2022-08-08T22:15:58.931Z,4.13
2022-08-08T22:18:31.763Z,4.15
2022-08-08T22:21:14.288Z,3.80
2022-08-08T22:23:51.242Z,4.72
2022-08-08T22:26:27.663Z,5.03
2022-08-08T22:29:13.059Z,5.05
2022-08-08T22:31:58.327Z,5.10
2022-08-08T22:34:39.546Z,7.13
2022-08-08T22:37:14.870Z,7.15
2022-08-08T22:40:01.407Z,4.90
2022-08-08T22:42:34.787Z,4.60
2022-08-08T22:45:12.361Z,5.80
2022-08-08T22:47:49.124Z,4.20
2022-08-08T22:50:27.240Z,3.88
2022-08-08T22:54:32.154Z,3.83
2022-08-08T22:55:57.854Z,4.15
2022-08-08T22:58:34.116Z,3.90
2022-08-08T23:01:30.557Z,3.63
2022-08-08T23:03:56.229Z,3.47
2022-08-08T23:06:27.363Z,3.65
2022-08-08T23:08:58.713Z,3.50
2022-08-08T23:11:30.792Z,4.05
2022-08-08T23:16:54.781Z,3.38
2022-08-08T23:19:30.871Z,3.63
2022-08-08T23:22:06.740Z,3.42
2022-08-08T23:24:41.445Z,3.42
2022-08-08T23:27:17.270Z,3.90
2022-08-08T23:30:00.274Z,3.72
2022-08-08T23:32:28.151Z,3.60
2022-08-08T23:34:58.761Z,3.60
2022-08-08T23:37:54.112Z,3.83
2022-08-08T23:40:18.515Z,3.85
2022-08-08T23:42:50.040Z,4.72
2022-08-08T23:49:02.101Z,4.00
2022-08-08T23:49:04.914Z,4.43
2022-08-08T23:50:57.319Z,4.05
2022-08-08T23:54:06.377Z,4.35
2022-08-08T23:56:13.500Z,4.38
2022-08-08T23:58:51.654Z,4.00
